createdAt,value
2023-04-27T00:00:54.952Z,1006.2
2023-04-27T00:02:11.238Z,1006.2
2023-04-27T00:03:27.528Z,1006.2
2023-04-27T00:04:43.802Z,1006.2
2023-04-27T00:06:00.116Z,1006.1
2023-04-27T00:07:16.403Z,1006.1
2023-04-27T00:08:32.705Z,1006.1
2023-04-27T00:09:49.009Z,1006.1
2023-04-27T00:11:05.285Z,1006.2
2023-04-27T00:12:21.589Z,1006.1
2023-04-27T00:13:37.881Z,1006.1
2023-04-27T00:14:53.194Z,1006.1
2023-04-27T00:16:09.000Z,1006.1
2023-04-27T00:17:25.761Z,1006.1
2023-04-27T00:18:42.057Z,1006.1
2023-04-27T00:19:58.354Z,1006.1
2023-04-27T00:21:14.660Z,1006.1
2023-04-27T00:22:30.954Z,1006
2023-04-27T00:23:47.252Z,1006
2023-04-27T00:25:03.537Z,1006
2023-04-27T00:26:19.841Z,1006
2023-04-27T00:27:36.112Z,1006
2023-04-27T00:28:52.411Z,1006
2023-04-27T00:30:08.719Z,1006.1
2023-04-27T00:31:24.039Z,1006.1
2023-04-27T00:32:40.333Z,1006.1
2023-04-27T00:33:56.602Z,1006
2023-04-27T00:35:12.890Z,1006.1
2023-04-27T00:36:29.210Z,1006.1
2023-04-27T00:37:45.000Z,1006.1
2023-04-27T00:39:01.778Z,1006.1
2023-04-27T00:40:18.074Z,1006.1
2023-04-27T00:41:34.367Z,1006.1
2023-04-27T00:42:50.678Z,1006.1
2023-04-27T00:44:06.979Z,1006.1
2023-04-27T00:45:23.249Z,1006.1
2023-04-27T00:46:39.560Z,1006.1
2023-04-27T00:47:54.872Z,1006.1
2023-04-27T00:49:11.139Z,1006.1
2023-04-27T00:50:27.000Z,1006.1
2023-04-27T00:51:43.741Z,1006.1
2023-04-27T00:53:00.055Z,1006.1
2023-04-27T00:54:16.317Z,1006.1
2023-04-27T00:55:32.626Z,1006.1
2023-04-27T00:56:48.918Z,1006.1
2023-04-27T00:58:05.000Z,1006.2
2023-04-27T00:59:21.498Z,1006.1
2023-04-27T01:00:37.786Z,1006.1
2023-04-27T01:01:54.093Z,1006.1
2023-04-27T01:03:10.406Z,1006.1
2023-04-27T01:04:25.715Z,1006.1
2023-04-27T01:05:42.003Z,1006.1
2023-04-27T01:06:58.000Z,1006.1
2023-04-27T01:08:14.577Z,1006.1
2023-04-27T01:09:30.860Z,1006.1
2023-04-27T01:10:47.154Z,1006.1
2023-04-27T01:12:03.449Z,1006.1
2023-04-27T01:13:19.768Z,1006.1
2023-04-27T01:14:36.036Z,1006.1
2023-04-27T01:15:52.361Z,1006.1
2023-04-27T01:17:08.651Z,1006.1
2023-04-27T01:18:24.924Z,1006.2
2023-04-27T01:19:41.218Z,1006.1
2023-04-27T01:20:56.000Z,1006.2
2023-04-27T01:22:12.835Z,1006.2
2023-04-27T01:23:29.119Z,1006.2
2023-04-27T01:24:45.433Z,1006.2
2023-04-27T01:26:01.726Z,1006.2
2023-04-27T01:27:17.990Z,1006.2
2023-04-27T01:28:34.310Z,1006.2
2023-04-27T01:29:50.599Z,1006.2
2023-04-27T01:31:06.883Z,1006.2
2023-04-27T01:32:23.180Z,1006.2
2023-04-27T01:33:39.000Z,1006.3
2023-04-27T01:34:55.759Z,1006.3
2023-04-27T01:36:12.070Z,1006.3
2023-04-27T01:37:27.388Z,1006.3
2023-04-27T01:38:43.661Z,1006.3
2023-04-27T01:39:59.973Z,1006.3
2023-04-27T01:41:16.270Z,1006.4
2023-04-27T01:42:32.538Z,1006.4
2023-04-27T01:43:48.854Z,1006.4
2023-04-27T01:45:05.155Z,1006.4
2023-04-27T01:46:21.421Z,1006.4
2023-04-27T01:47:37.723Z,1006.4
2023-04-27T01:48:54.022Z,1006.4
2023-04-27T01:50:10.330Z,1006.4
2023-04-27T01:51:26.593Z,1006.4
2023-04-27T01:52:42.887Z,1006.4
2023-04-27T01:53:58.229Z,1006.4
2023-04-27T01:55:14.521Z,1006.4
2023-04-27T01:56:30.784Z,1006.4
2023-04-27T01:57:47.080Z,1006.4
2023-04-27T01:59:03.395Z,1006.4
2023-04-27T02:00:19.672Z,1006.4
2023-04-27T02:01:35.983Z,1006.4
2023-04-27T02:02:52.260Z,1006.4
2023-04-27T02:04:08.570Z,1006.5
2023-04-27T02:05:24.865Z,1006.4
2023-04-27T02:06:41.150Z,1006.4
2023-04-27T02:07:57.461Z,1006.4
2023-04-27T02:09:13.750Z,1006.4
2023-04-27T02:10:29.045Z,1006.4
2023-04-27T02:11:45.333Z,1006.4
2023-04-27T02:13:01.639Z,1006.4
2023-04-27T02:14:17.928Z,1006.4
2023-04-27T02:15:34.233Z,1006.5
2023-04-27T02:16:50.526Z,1006.5
2023-04-27T02:18:05.840Z,1006.5
2023-04-27T02:19:22.137Z,1006.5
2023-04-27T02:20:38.411Z,1006.5
2023-04-27T02:21:54.707Z,1006.5
2023-04-27T02:23:11.008Z,1006.5
2023-04-27T02:24:27.294Z,1006.5
2023-04-27T02:25:43.596Z,1006.5
2023-04-27T02:26:59.897Z,1006.6
2023-04-27T02:28:16.181Z,1006.5
2023-04-27T02:29:32.482Z,1006.5
2023-04-27T02:30:48.777Z,1006.5
2023-04-27T02:32:05.056Z,1006.5
2023-04-27T02:33:21.371Z,1006.5
2023-04-27T02:34:36.664Z,1006.5
2023-04-27T02:35:52.954Z,1006.6
2023-04-27T02:37:09.268Z,1006.5
2023-04-27T02:38:25.557Z,1006.6
2023-04-27T02:39:41.845Z,1006.6
2023-04-27T02:40:58.000Z,1006.5
2023-04-27T02:42:14.442Z,1006.6
2023-04-27T02:43:30.726Z,1006.6
2023-04-27T02:44:47.029Z,1006.6
2023-04-27T02:46:03.317Z,1006.6
2023-04-27T02:47:19.601Z,1006.6
2023-04-27T02:48:35.910Z,1006.6
2023-04-27T02:49:52.200Z,1006.7
2023-04-27T02:51:07.517Z,1006.6
2023-04-27T02:52:23.804Z,1006.7
2023-04-27T02:53:40.089Z,1006.6
2023-04-27T02:54:56.389Z,1006.7
2023-04-27T02:56:12.688Z,1006.6
2023-04-27T02:57:28.970Z,1006.6
2023-04-27T02:58:45.000Z,1006.7
2023-04-27T03:00:01.566Z,1006.7
2023-04-27T03:01:17.863Z,1006.7
2023-04-27T03:02:34.157Z,1006.7
2023-04-27T03:03:50.461Z,1006.7
2023-04-27T03:05:06.752Z,1006.7
2023-04-27T03:06:23.036Z,1006.8
2023-04-27T03:07:38.360Z,1006.7
2023-04-27T03:08:54.633Z,1006.8
2023-04-27T03:10:10.952Z,1006.8
2023-04-27T03:11:27.228Z,1006.8
2023-04-27T03:12:43.523Z,1006.8
2023-04-27T03:13:59.832Z,1006.8
2023-04-27T03:15:16.109Z,1006.8
2023-04-27T03:16:32.407Z,1006.8
2023-04-27T03:17:48.697Z,1006.8
2023-04-27T03:19:04.994Z,1006.9
2023-04-27T03:20:21.236Z,1006.9
2023-04-27T03:21:37.522Z,1006.9
2023-04-27T03:22:53.820Z,1006.9
2023-04-27T03:24:09.084Z,1006.9
2023-04-27T03:25:25.325Z,1006.8
2023-04-27T03:26:41.628Z,1006.8
2023-04-27T03:27:57.920Z,1006.9
2023-04-27T03:29:14.000Z,1006.9
2023-04-27T03:30:30.469Z,1006.9
2023-04-27T03:31:46.760Z,1006.9
2023-04-27T03:33:03.015Z,1006.9
2023-04-27T03:34:19.250Z,1006.9
2023-04-27T03:35:35.494Z,1006.9
2023-04-27T03:36:51.737Z,1006.9
2023-04-27T03:38:07.972Z,1006.9
2023-04-27T03:39:24.217Z,1006.9
2023-04-27T03:40:39.477Z,1006.9
2023-04-27T03:41:55.708Z,1007
2023-04-27T03:43:11.940Z,1006.9
2023-04-27T03:44:28.194Z,1006.9
2023-04-27T03:45:44.429Z,1006.9
2023-04-27T03:47:00.663Z,1006.9
2023-04-27T03:48:16.910Z,1006.9
2023-04-27T03:49:33.151Z,1006.9
2023-04-27T03:50:49.396Z,1007
2023-04-27T03:52:05.635Z,1007
2023-04-27T03:53:21.860Z,1007
2023-04-27T03:54:38.114Z,1007
2023-04-27T03:55:54.359Z,1007
2023-04-27T03:57:09.605Z,1007
2023-04-27T03:58:25.837Z,1007.1
2023-04-27T03:59:42.082Z,1007
2023-04-27T04:00:58.326Z,1007
2023-04-27T04:02:14.566Z,1007.1
2023-04-27T04:03:30.806Z,1007.1
2023-04-27T04:04:47.057Z,1007.1
2023-04-27T04:06:03.287Z,1007.1
2023-04-27T04:07:19.543Z,1007.2
2023-04-27T04:08:35.762Z,1007.2
2023-04-27T04:09:52.002Z,1007.2
2023-04-27T04:11:08.247Z,1007.2
2023-04-27T04:12:24.488Z,1007.3
2023-04-27T04:13:39.751Z,1007.3
2023-04-27T04:14:55.984Z,1007.3
2023-04-27T04:16:12.234Z,1007.2
2023-04-27T04:17:28.472Z,1007.3
2023-04-27T04:18:44.695Z,1007.3
2023-04-27T04:20:00.958Z,1007.3
2023-04-27T04:21:17.195Z,1007.4
2023-04-27T04:22:33.431Z,1007.3
2023-04-27T04:23:49.661Z,1007.4
2023-04-27T04:25:05.000Z,1007.4
2023-04-27T04:26:22.139Z,1007.4
2023-04-27T04:27:38.386Z,1007.4
2023-04-27T04:28:54.623Z,1007.4
2023-04-27T04:30:09.873Z,1007.4
2023-04-27T04:31:26.114Z,1007.5
2023-04-27T04:32:42.363Z,1007.5
2023-04-27T04:33:58.000Z,1007.4
2023-04-27T04:35:14.849Z,1007.5
2023-04-27T04:36:31.081Z,1007.5
2023-04-27T04:37:47.326Z,1007.5
2023-04-27T04:39:03.567Z,1007.4
2023-04-27T04:40:19.811Z,1007.4
2023-04-27T04:41:36.033Z,1007.5
2023-04-27T04:42:52.275Z,1007.5
2023-04-27T04:44:08.515Z,1007.5
2023-04-27T04:45:24.756Z,1007.5
2023-04-27T04:46:40.012Z,1007.5
2023-04-27T04:47:56.270Z,1007.6
2023-04-27T04:49:12.513Z,1007.6
2023-04-27T04:50:28.740Z,1007.5
2023-04-27T04:51:44.972Z,1007.5
2023-04-27T04:53:01.217Z,1007.5
2023-04-27T04:54:17.465Z,1007.6
2023-04-27T04:55:33.698Z,1007.5
2023-04-27T04:56:49.951Z,1007.5
2023-04-27T04:58:06.189Z,1007.5
2023-04-27T04:59:22.433Z,1007.5
2023-04-27T05:00:38.666Z,1007.5
2023-04-27T05:01:54.897Z,1007.5
2023-04-27T05:03:10.151Z,1007.4
2023-04-27T05:04:26.405Z,1007.4
2023-04-27T05:05:42.651Z,1007.4
2023-04-27T05:06:58.888Z,1007.4
2023-04-27T05:08:15.121Z,1007.4
2023-04-27T05:09:31.354Z,1007.4
2023-04-27T05:10:47.598Z,1007.3
2023-04-27T05:12:03.853Z,1007.3
2023-04-27T05:13:20.081Z,1007.3
2023-04-27T05:14:36.319Z,1007.4
2023-04-27T05:15:52.565Z,1007.3
2023-04-27T05:17:08.793Z,1007.4
2023-04-27T05:18:25.032Z,1007.4
2023-04-27T05:19:40.309Z,1007.4
2023-04-27T05:20:56.538Z,1007.4
2023-04-27T05:22:12.768Z,1007.4
2023-04-27T05:23:29.006Z,1007.4
2023-04-27T05:24:45.000Z,1007.5
2023-04-27T05:26:01.503Z,1007.5
2023-04-27T05:27:17.726Z,1007.4
2023-04-27T05:28:33.972Z,1007.5
2023-04-27T05:29:50.208Z,1007.5
2023-04-27T05:31:06.445Z,1007.5
2023-04-27T05:32:22.708Z,1007.5
2023-04-27T05:33:38.937Z,1007.5
2023-04-27T05:34:55.172Z,1007.4
2023-04-27T05:36:10.431Z,1007.3
2023-04-27T05:37:26.667Z,1007.3
2023-04-27T05:38:42.921Z,1007.4
2023-04-27T05:39:59.152Z,1007.3
2023-04-27T05:41:15.409Z,1007.3
2023-04-27T05:42:31.641Z,1007.3
2023-04-27T05:43:47.874Z,1007.4
2023-04-27T05:45:04.109Z,1007.4
2023-04-27T05:46:20.360Z,1007.4
2023-04-27T05:47:36.582Z,1007.4
2023-04-27T05:48:52.836Z,1007.4
2023-04-27T05:50:09.065Z,1007.4
2023-04-27T05:51:25.305Z,1007.5
2023-04-27T05:52:40.559Z,1007.5
2023-04-27T05:53:56.809Z,1007.4
2023-04-27T05:55:13.049Z,1007.4
2023-04-27T05:56:29.293Z,1007.4
2023-04-27T05:57:45.537Z,1007.4
2023-04-27T05:59:01.767Z,1007.4
2023-04-27T06:00:18.006Z,1007.4
2023-04-27T06:01:34.242Z,1007.5
2023-04-27T06:02:50.493Z,1007.4
2023-04-27T06:04:06.731Z,1007.5
2023-04-27T06:05:22.960Z,1007.5
2023-04-27T06:06:39.210Z,1007.4
2023-04-27T06:07:55.441Z,1007.5
2023-04-27T06:09:10.706Z,1007.5
2023-04-27T06:10:26.937Z,1007.5
2023-04-27T06:11:43.188Z,1007.5
2023-04-27T06:12:59.419Z,1007.5
2023-04-27T06:14:15.679Z,1007.5
2023-04-27T06:15:31.898Z,1007.5
2023-04-27T06:16:48.147Z,1007.5
2023-04-27T06:18:04.391Z,1007.5
2023-04-27T06:19:20.625Z,1007.5
2023-04-27T06:20:36.864Z,1007.5
2023-04-27T06:21:53.110Z,1007.5
2023-04-27T06:23:09.348Z,1007.6
2023-04-27T06:24:25.584Z,1007.6
2023-04-27T06:25:40.838Z,1007.6
2023-04-27T06:26:57.081Z,1007.6
2023-04-27T06:28:13.327Z,1007.6
2023-04-27T06:29:29.557Z,1007.6
2023-04-27T06:30:45.805Z,1007.6
2023-04-27T06:32:02.040Z,1007.6
2023-04-27T06:33:17.305Z,1007.6
2023-04-27T06:34:33.541Z,1007.6
2023-04-27T06:35:49.772Z,1007.6
2023-04-27T06:37:06.021Z,1007.6
2023-04-27T06:38:22.253Z,1007.6
2023-04-27T06:39:38.500Z,1007.6
2023-04-27T06:40:54.745Z,1007.6
2023-04-27T06:42:10.967Z,1007.7
2023-04-27T06:43:27.216Z,1007.7
2023-04-27T06:44:43.458Z,1007.7
2023-04-27T06:45:59.703Z,1007.6
2023-04-27T06:47:15.937Z,1007.7
2023-04-27T06:48:32.182Z,1007.7
2023-04-27T06:49:47.434Z,1007.7
2023-04-27T06:51:03.675Z,1007.7
2023-04-27T06:52:19.928Z,1007.8
2023-04-27T06:53:36.162Z,1007.7
2023-04-27T06:54:52.383Z,1007.7
2023-04-27T06:56:08.624Z,1007.7
2023-04-27T06:57:24.861Z,1007.7
2023-04-27T06:58:41.103Z,1007.7
2023-04-27T06:59:57.347Z,1007.7
2023-04-27T07:01:13.579Z,1007.7
2023-04-27T07:02:29.834Z,1007.7
2023-04-27T07:03:46.060Z,1007.7
2023-04-27T07:05:02.317Z,1007.7
2023-04-27T07:06:17.571Z,1007.6
2023-04-27T07:07:33.814Z,1007.7
2023-04-27T07:08:50.044Z,1007.7
2023-04-27T07:10:06.281Z,1007.7
2023-04-27T07:11:22.525Z,1007.8
2023-04-27T07:12:38.769Z,1007.8
2023-04-27T07:13:55.011Z,1007.8
2023-04-27T07:15:11.240Z,1007.8
2023-04-27T07:16:27.479Z,1007.8
2023-04-27T07:17:43.737Z,1007.8
2023-04-27T07:18:59.979Z,1007.8
2023-04-27T07:20:16.204Z,1007.8
2023-04-27T07:21:32.442Z,1007.8
2023-04-27T07:22:47.686Z,1007.8
2023-04-27T07:24:03.929Z,1007.9
2023-04-27T07:25:20.168Z,1007.9
2023-04-27T07:26:36.409Z,1007.8
2023-04-27T07:27:52.665Z,1007.9
2023-04-27T07:29:08.897Z,1007.8
2023-04-27T07:30:25.131Z,1007.8
2023-04-27T07:31:41.381Z,1007.8
2023-04-27T07:32:57.618Z,1007.8
2023-04-27T07:34:13.858Z,1007.8
2023-04-27T07:35:30.100Z,1007.9
2023-04-27T07:36:46.336Z,1007.9
2023-04-27T07:38:02.573Z,1007.9
2023-04-27T07:39:17.831Z,1007.8
2023-04-27T07:40:34.068Z,1007.9
2023-04-27T07:41:50.327Z,1007.9
2023-04-27T07:43:06.000Z,1007.9
2023-04-27T07:44:22.792Z,1007.9
2023-04-27T07:45:39.028Z,1007.9
2023-04-27T07:46:55.268Z,1007.9
2023-04-27T07:48:11.503Z,1007.9
2023-04-27T07:49:27.753Z,1008
2023-04-27T07:50:43.998Z,1007.9
2023-04-27T07:52:00.231Z,1008
2023-04-27T07:53:16.000Z,1008
2023-04-27T07:54:32.705Z,1008
2023-04-27T07:55:47.950Z,1008
2023-04-27T07:57:04.195Z,1008
2023-04-27T07:58:20.443Z,1008
2023-04-27T07:59:36.671Z,1007.9
2023-04-27T08:00:52.918Z,1007.9
2023-04-27T08:02:09.156Z,1007.9
2023-04-27T08:03:25.400Z,1007.9
2023-04-27T08:04:41.647Z,1007.9
2023-04-27T08:05:57.888Z,1007.9
2023-04-27T08:07:14.116Z,1007.9
2023-04-27T08:08:30.357Z,1007.9
2023-04-27T08:09:46.596Z,1007.9
2023-04-27T08:11:02.842Z,1007.9
2023-04-27T08:12:18.088Z,1008
2023-04-27T08:13:34.318Z,1008
2023-04-27T08:14:50.588Z,1008
2023-04-27T08:16:06.817Z,1008
2023-04-27T08:17:23.054Z,1008
2023-04-27T08:18:39.305Z,1008
2023-04-27T08:19:55.524Z,1008
2023-04-27T08:21:11.778Z,1008
2023-04-27T08:22:27.995Z,1008
2023-04-27T08:23:44.256Z,1007.9
2023-04-27T08:25:00.479Z,1008
2023-04-27T08:26:16.716Z,1008
2023-04-27T08:27:32.955Z,1008
2023-04-27T08:28:48.224Z,1008
2023-04-27T08:30:04.479Z,1008
2023-04-27T08:31:20.691Z,1008
2023-04-27T08:32:36.931Z,1008
2023-04-27T08:33:53.184Z,1008
2023-04-27T08:35:09.413Z,1008
2023-04-27T08:36:25.665Z,1008
2023-04-27T08:37:41.890Z,1007.9
2023-04-27T08:38:58.129Z,1008
2023-04-27T08:40:14.394Z,1007.9
2023-04-27T08:41:30.619Z,1007.9
2023-04-27T08:42:46.861Z,1007.9
2023-04-27T08:44:03.093Z,1007.9
2023-04-27T08:45:18.350Z,1007.9
2023-04-27T08:46:34.611Z,1007.8
2023-04-27T08:47:50.842Z,1007.8
2023-04-27T08:49:07.074Z,1007.8
2023-04-27T08:50:23.320Z,1007.8
2023-04-27T08:51:39.553Z,1007.9
2023-04-27T08:52:55.799Z,1007.8
2023-04-27T08:54:12.033Z,1007.9
2023-04-27T08:55:28.286Z,1007.9
2023-04-27T08:56:44.518Z,1007.8
2023-04-27T08:58:00.749Z,1007.8
2023-04-27T08:59:16.988Z,1007.8
2023-04-27T09:00:33.229Z,1007.8
2023-04-27T09:01:48.483Z,1007.8
2023-04-27T09:03:04.724Z,1007.8
2023-04-27T09:04:20.967Z,1007.8
2023-04-27T09:05:37.213Z,1007.8
2023-04-27T09:06:53.461Z,1007.8
2023-04-27T09:08:09.703Z,1007.8
2023-04-27T09:09:25.937Z,1007.8
2023-04-27T09:10:42.173Z,1007.8
2023-04-27T09:11:58.407Z,1007.8
2023-04-27T09:13:14.648Z,1007.8
2023-04-27T09:14:30.908Z,1007.8
2023-04-27T09:15:47.000Z,1007.8
2023-04-27T09:17:03.360Z,1007.7
2023-04-27T09:18:18.636Z,1007.7
2023-04-27T09:19:34.890Z,1007.7
2023-04-27T09:20:51.107Z,1007.8
2023-04-27T09:22:07.341Z,1007.8
2023-04-27T09:23:23.595Z,1007.8
2023-04-27T09:24:39.825Z,1007.7
2023-04-27T09:25:56.056Z,1007.7
2023-04-27T09:27:12.303Z,1007.7
2023-04-27T09:28:28.550Z,1007.7
2023-04-27T09:29:44.782Z,1007.7
2023-04-27T09:31:01.029Z,1007.7
2023-04-27T09:32:17.284Z,1007.7
2023-04-27T09:33:33.521Z,1007.7
2023-04-27T09:34:48.771Z,1007.7
2023-04-27T09:36:05.006Z,1007.7
2023-04-27T09:37:21.240Z,1007.6
2023-04-27T09:38:37.478Z,1007.6
2023-04-27T09:39:53.716Z,1007.6
2023-04-27T09:41:09.979Z,1007.6
2023-04-27T09:42:26.214Z,1007.6
2023-04-27T09:43:42.444Z,1007.6
2023-04-27T09:44:58.690Z,1007.7
2023-04-27T09:46:14.931Z,1007.6
2023-04-27T09:47:31.187Z,1007.7
2023-04-27T09:48:47.400Z,1007.6
2023-04-27T09:50:03.650Z,1007.6
2023-04-27T09:51:18.893Z,1007.6
2023-04-27T09:52:35.146Z,1007.6
2023-04-27T09:53:51.387Z,1007.6
2023-04-27T09:55:07.613Z,1007.6
2023-04-27T09:56:23.868Z,1007.6
2023-04-27T09:57:40.116Z,1007.5
2023-04-27T09:58:56.344Z,1007.5
2023-04-27T10:00:12.575Z,1007.5
2023-04-27T10:01:28.824Z,1007.6
2023-04-27T10:02:45.070Z,1007.6
2023-04-27T10:04:01.307Z,1007.6
2023-04-27T10:05:17.543Z,1007.5
2023-04-27T10:06:33.774Z,1007.5
2023-04-27T10:07:49.035Z,1007.5
2023-04-27T10:09:05.291Z,1007.6
2023-04-27T10:10:21.511Z,1007.5
2023-04-27T10:11:37.770Z,1007.5
2023-04-27T10:12:54.001Z,1007.6
2023-04-27T10:14:10.247Z,1007.5
2023-04-27T10:15:26.485Z,1007.6
2023-04-27T10:16:42.744Z,1007.6
2023-04-27T10:17:58.974Z,1007.6
2023-04-27T10:19:15.214Z,1007.5
2023-04-27T10:20:31.450Z,1007.5
2023-04-27T10:21:47.697Z,1007.4
2023-04-27T10:23:03.923Z,1007.5
2023-04-27T10:24:19.172Z,1007.5
2023-04-27T10:25:35.419Z,1007.5
2023-04-27T10:26:51.650Z,1007.4
2023-04-27T10:28:07.910Z,1007.4
2023-04-27T10:29:24.161Z,1007.4
2023-04-27T10:30:40.386Z,1007.4
2023-04-27T10:31:56.639Z,1007.5
2023-04-27T10:33:12.875Z,1007.5
2023-04-27T10:34:29.092Z,1007.4
2023-04-27T10:35:45.349Z,1007.5
2023-04-27T10:37:01.590Z,1007.5
2023-04-27T10:38:17.836Z,1007.5
2023-04-27T10:39:34.000Z,1007.5
2023-04-27T10:40:49.307Z,1007.6
2023-04-27T10:42:05.574Z,1007.5
2023-04-27T10:43:21.803Z,1007.5
2023-04-27T10:44:38.057Z,1007.5
2023-04-27T10:45:54.278Z,1007.5
2023-04-27T10:47:10.518Z,1007.5
2023-04-27T10:48:25.793Z,1007.5
2023-04-27T10:49:42.010Z,1007.5
2023-04-27T10:50:58.267Z,1007.5
2023-04-27T10:52:14.501Z,1007.5
2023-04-27T10:53:30.744Z,1007.5
2023-04-27T10:54:46.984Z,1007.5
2023-04-27T10:56:03.216Z,1007.5
2023-04-27T10:57:19.448Z,1007.4
2023-04-27T10:58:35.720Z,1007.5
2023-04-27T10:59:51.931Z,1007.5
2023-04-27T11:01:08.182Z,1007.5
2023-04-27T11:02:24.435Z,1007.5
2023-04-27T11:03:40.684Z,1007.5
2023-04-27T11:04:55.921Z,1007.5
2023-04-27T11:06:12.156Z,1007.5
2023-04-27T11:07:28.409Z,1007.5
2023-04-27T11:08:44.634Z,1007.5
2023-04-27T11:10:00.886Z,1007.5
2023-04-27T11:11:17.133Z,1007.5
2023-04-27T11:12:33.356Z,1007.6
2023-04-27T11:13:49.605Z,1007.5
2023-04-27T11:15:05.846Z,1007.5
2023-04-27T11:16:22.082Z,1007.5
2023-04-27T11:17:38.320Z,1007.5
2023-04-27T11:18:54.556Z,1007.5
2023-04-27T11:20:10.807Z,1007.6
2023-04-27T11:21:26.059Z,1007.5
2023-04-27T11:22:42.293Z,1007.5
2023-04-27T11:23:58.544Z,1007.6
2023-04-27T11:25:14.787Z,1007.5
2023-04-27T11:26:31.018Z,1007.6
2023-04-27T11:27:47.254Z,1007.5
2023-04-27T11:29:03.504Z,1007.6
2023-04-27T11:30:19.738Z,1007.6
2023-04-27T11:31:35.986Z,1007.6
2023-04-27T11:32:52.000Z,1007.6
2023-04-27T11:34:08.463Z,1007.6
2023-04-27T11:35:24.697Z,1007.6
2023-04-27T11:36:40.931Z,1007.6
2023-04-27T11:37:56.194Z,1007.6
2023-04-27T11:39:12.427Z,1007.6
2023-04-27T11:40:28.686Z,1007.6
2023-04-27T11:41:44.917Z,1007.6
2023-04-27T11:43:01.156Z,1007.6
2023-04-27T11:44:17.000Z,1007.6
2023-04-27T11:45:33.634Z,1007.6
2023-04-27T11:46:49.881Z,1007.5
2023-04-27T11:48:06.126Z,1007.6
2023-04-27T11:49:22.354Z,1007.6
2023-04-27T11:50:38.614Z,1007.6
2023-04-27T11:51:54.839Z,1007.6
2023-04-27T11:53:11.069Z,1007.6
2023-04-27T11:54:26.329Z,1007.5
2023-04-27T11:55:42.568Z,1007.5
2023-04-27T11:56:58.809Z,1007.6
2023-04-27T11:58:15.043Z,1007.5
2023-04-27T11:59:31.289Z,1007.5
2023-04-27T12:00:47.000Z,1007.5
2023-04-27T12:02:03.763Z,1007.5
2023-04-27T12:03:20.002Z,1007.5
2023-04-27T12:04:36.250Z,1007.5
2023-04-27T12:05:52.478Z,1007.5
2023-04-27T12:07:08.721Z,1007.5
2023-04-27T12:08:24.957Z,1007.5
2023-04-27T12:09:41.200Z,1007.5
2023-04-27T12:10:56.460Z,1007.6
2023-04-27T12:12:12.699Z,1007.6
2023-04-27T12:13:28.945Z,1007.5
2023-04-27T12:14:45.194Z,1007.5
2023-04-27T12:16:01.415Z,1007.5
2023-04-27T12:17:17.000Z,1007.5
2023-04-27T12:18:33.890Z,1007.5
2023-04-27T12:19:50.128Z,1007.5
2023-04-27T12:21:06.370Z,1007.5
2023-04-27T12:22:22.625Z,1007.4
2023-04-27T12:23:38.844Z,1007.4
2023-04-27T12:24:55.105Z,1007.4
2023-04-27T12:26:11.335Z,1007.4
2023-04-27T12:27:26.586Z,1007.4
2023-04-27T12:28:42.824Z,1007.4
2023-04-27T12:29:59.062Z,1007.5
2023-04-27T12:31:15.301Z,1007.4
2023-04-27T12:32:31.547Z,1007.4
2023-04-27T12:33:47.785Z,1007.5
2023-04-27T12:35:04.029Z,1007.5
2023-04-27T12:36:20.274Z,1007.5
2023-04-27T12:37:36.511Z,1007.4
2023-04-27T12:38:52.752Z,1007.4
2023-04-27T12:40:08.990Z,1007.4
2023-04-27T12:41:25.221Z,1007.4
2023-04-27T12:42:41.470Z,1007.5
2023-04-27T12:43:56.724Z,1007.5
2023-04-27T12:45:12.962Z,1007.4
2023-04-27T12:46:29.196Z,1007.5
2023-04-27T12:47:45.434Z,1007.5
2023-04-27T12:49:01.684Z,1007.5
2023-04-27T12:50:17.000Z,1007.5
2023-04-27T12:51:34.156Z,1007.5
2023-04-27T12:52:50.402Z,1007.4
2023-04-27T12:54:06.629Z,1007.4
2023-04-27T12:55:22.868Z,1007.4
2023-04-27T12:56:39.127Z,1007.4
2023-04-27T12:57:55.361Z,1007.4
2023-04-27T12:59:11.600Z,1007.4
2023-04-27T13:00:26.841Z,1007.4
2023-04-27T13:01:43.089Z,1007.4
2023-04-27T13:02:59.337Z,1007.4
2023-04-27T13:04:15.564Z,1007.4
2023-04-27T13:05:31.801Z,1007.4
2023-04-27T13:06:48.036Z,1007.4
2023-04-27T13:08:04.285Z,1007.4
2023-04-27T13:09:20.000Z,1007.4
2023-04-27T13:10:36.762Z,1007.4
2023-04-27T13:11:53.008Z,1007.4
2023-04-27T13:13:09.249Z,1007.3
2023-04-27T13:14:25.482Z,1007.4
2023-04-27T13:15:41.711Z,1007.3
2023-04-27T13:16:56.979Z,1007.3
2023-04-27T13:18:13.217Z,1007.3
2023-04-27T13:19:29.453Z,1007.2
2023-04-27T13:20:45.692Z,1007.2
2023-04-27T13:22:01.920Z,1007.3
2023-04-27T13:23:18.000Z,1007.3
2023-04-27T13:24:34.418Z,1007.3
2023-04-27T13:25:50.658Z,1007.2
2023-04-27T13:27:06.876Z,1007.2
2023-04-27T13:28:23.121Z,1007.3
2023-04-27T13:29:39.355Z,1007.2
2023-04-27T13:30:55.608Z,1007.2
2023-04-27T13:32:11.842Z,1007.1
2023-04-27T13:33:27.080Z,1007.1
2023-04-27T13:34:43.345Z,1007.1
2023-04-27T13:35:59.560Z,1007.1
2023-04-27T13:37:15.813Z,1007.1
2023-04-27T13:38:32.034Z,1007.2
2023-04-27T13:39:48.000Z,1007.2
2023-04-27T13:41:04.525Z,1007.2
2023-04-27T13:42:20.777Z,1007.2
2023-04-27T13:43:36.995Z,1007.1
2023-04-27T13:44:53.246Z,1007.1
2023-04-27T13:46:09.466Z,1007.1
2023-04-27T13:47:25.711Z,1007
2023-04-27T13:48:41.962Z,1007
2023-04-27T13:49:57.198Z,1007
2023-04-27T13:51:13.438Z,1007
2023-04-27T13:52:29.676Z,1007
2023-04-27T13:53:45.931Z,1007
2023-04-27T13:55:02.155Z,1007
2023-04-27T13:56:18.406Z,1007
2023-04-27T13:57:34.650Z,1006.9
2023-04-27T13:58:50.881Z,1007
2023-04-27T14:00:07.117Z,1006.9
2023-04-27T14:01:23.361Z,1006.9
2023-04-27T14:02:39.596Z,1006.9
2023-04-27T14:03:55.838Z,1006.9
2023-04-27T14:05:12.068Z,1006.9
2023-04-27T14:06:27.323Z,1006.8
2023-04-27T14:07:43.571Z,1006.8
2023-04-27T14:08:59.797Z,1006.9
2023-04-27T14:10:16.053Z,1006.9
2023-04-27T14:11:32.277Z,1006.9
2023-04-27T14:12:48.529Z,1006.9
2023-04-27T14:14:04.754Z,1006.9
2023-04-27T14:15:21.007Z,1006.9
2023-04-27T14:16:37.232Z,1006.9
2023-04-27T14:17:53.494Z,1006.9
2023-04-27T14:19:09.722Z,1007
2023-04-27T14:20:25.976Z,1006.9
2023-04-27T14:21:42.194Z,1006.9
2023-04-27T14:22:57.448Z,1006.9
2023-04-27T14:24:13.688Z,1006.9
2023-04-27T14:25:29.934Z,1006.9
2023-04-27T14:26:46.175Z,1006.8
2023-04-27T14:28:02.411Z,1006.8
2023-04-27T14:29:18.640Z,1006.8
2023-04-27T14:30:34.894Z,1006.8
2023-04-27T14:31:51.122Z,1006.8
2023-04-27T14:33:07.362Z,1006.8
2023-04-27T14:34:23.610Z,1006.7
2023-04-27T14:35:39.842Z,1006.8
2023-04-27T14:36:56.072Z,1006.8
2023-04-27T14:38:12.314Z,1006.7
2023-04-27T14:39:27.572Z,1006.8
2023-04-27T14:40:43.811Z,1006.8
2023-04-27T14:42:00.044Z,1006.7
2023-04-27T14:43:16.283Z,1006.7
2023-04-27T14:44:32.539Z,1006.7
2023-04-27T14:45:48.779Z,1006.7
2023-04-27T14:47:05.006Z,1006.7
2023-04-27T14:48:21.249Z,1006.8
2023-04-27T14:49:37.500Z,1006.7
2023-04-27T14:50:53.722Z,1006.8
2023-04-27T14:52:09.982Z,1006.8
2023-04-27T14:53:26.224Z,1006.7
2023-04-27T14:54:42.438Z,1006.7
2023-04-27T14:55:57.693Z,1006.7
2023-04-27T14:57:13.944Z,1006.8
2023-04-27T14:58:30.189Z,1006.7
2023-04-27T14:59:46.416Z,1006.7
2023-04-27T15:01:02.652Z,1006.8
2023-04-27T15:02:18.891Z,1006.8
2023-04-27T15:03:34.146Z,1006.7
2023-04-27T15:04:50.402Z,1006.8
2023-04-27T15:06:06.641Z,1006.7
2023-04-27T15:07:22.872Z,1006.8
2023-04-27T15:08:39.129Z,1006.7
2023-04-27T15:09:55.354Z,1006.8
2023-04-27T15:11:11.582Z,1006.8
2023-04-27T15:12:27.825Z,1006.7
2023-04-27T15:13:44.061Z,1006.7
2023-04-27T15:15:00.304Z,1006.7
2023-04-27T15:16:16.000Z,1006.7
2023-04-27T15:17:32.788Z,1006.7
2023-04-27T15:18:49.030Z,1006.7
2023-04-27T15:20:04.271Z,1006.7
2023-04-27T15:21:20.541Z,1006.8
2023-04-27T15:22:36.763Z,1006.7
2023-04-27T15:23:52.994Z,1006.7
2023-04-27T15:25:09.247Z,1006.7
2023-04-27T15:26:25.468Z,1006.7
2023-04-27T15:27:41.703Z,1006.7
2023-04-27T15:28:57.958Z,1006.6
2023-04-27T15:30:14.206Z,1006.6
2023-04-27T15:31:30.419Z,1006.6
2023-04-27T15:32:46.674Z,1006.7
2023-04-27T15:34:02.000Z,1006.6
2023-04-27T15:35:19.142Z,1006.6
2023-04-27T15:36:34.410Z,1006.6
2023-04-27T15:37:50.648Z,1006.6
2023-04-27T15:39:06.889Z,1006.6
2023-04-27T15:40:23.113Z,1006.6
2023-04-27T15:41:39.351Z,1006.6
2023-04-27T15:42:55.611Z,1006.6
2023-04-27T15:44:11.826Z,1006.6
2023-04-27T15:45:28.083Z,1006.6
2023-04-27T15:46:44.307Z,1006.6
2023-04-27T15:48:00.554Z,1006.6
2023-04-27T15:49:16.797Z,1006.6
2023-04-27T15:50:33.031Z,1006.5
2023-04-27T15:51:49.276Z,1006.5
2023-04-27T15:53:04.524Z,1006.5
2023-04-27T15:54:20.766Z,1006.5